PWSweather.com
Personal Weather Stations
Station Observations
KNVELKO7
Elko, NV 89801

Elko, NV 89801

Lat: 40.963233, Lon: -115.592836

Elevation: 5230

Station Type: WS-2812

High Low Average
Temperature 92.7°F33.7°C 45.2°F7.3°C 69.2°F20.7°C
Dew Point 50.1°F10.1°C 29.4°F-1.4°C 40.8°F4.9°C
Winds 27.2 mph 43.8 kmh Calm Calm 4.0 mph SE6.4 kmh SE
Wind Gusts 32.9 mph52.9 kmh -- 6.0 mph9.7 kmh
Humidity 59% 19% 38%
Pressure 30.04 in1017.3 mb 29.88 in1011.9 mb -
Precipitation 0.01 in0.3 mm - -
Hour Temp Dew Point Humidity Winds Wind Gusts Pressure Precip Precip Rate Daily Precip Total
12:00 AM 56.9°F13.8°C 30.7°F-0.7°C 37% 1.9 mph 3.1 kmh 2.7 mph4.3 kmh 30.01 in1016.3 mb 0.00 in0.0 mm 0.00 in/hr0.0 mm/hr 0.00 in0.0 mm
12:05 AM 56.5°F13.6°C 30.3°F-0.9°C 37% 1.0 mph 1.6 kmh 2.5 mph4.0 kmh 30.01 in1016.3 mb 0.00 in0.0 mm 0.00 in/hr0.0 mm/hr 0.00 in0.0 mm
12:10 AM 56.5°F13.6°C 31.1°F-0.5°C 38% 1.5 mph 2.4 kmh 2.5 mph4.0 kmh 30.01 in1016.3 mb 0.00 in0.0 mm 0.00 in/hr0.0 mm/hr 0.00 in0.0 mm
12:15 AM 56.7°F13.7°C 31.2°F-0.4°C 38% 3.4 mph N5.5 kmh N 3.6 mph5.8 kmh 30.01 in1016.3 mb 0.00 in0.0 mm 0.00 in/hr0.0 mm/hr 0.00 in0.0 mm
12:20 AM 56.9°F13.8°C 31.4°F-0.3°C 38% 2.3 mph 3.7 kmh 3.6 mph5.8 kmh 30.01 in1016.3 mb 0.00 in0.0 mm 0.00 in/hr0.0 mm/hr 0.00 in0.0 mm
12:25 AM 56.9°F13.8°C 31.4°F-0.3°C 38% 0.4 mph SE0.6 kmh SE 3.6 mph5.8 kmh 30.01 in1016.3 mb 0.00 in0.0 mm 0.00 in/hr0.0 mm/hr 0.00 in0.0 mm
12:31 AM 56.5°F13.6°C 31.1°F-0.5°C 38% 0.3 mph SE0.5 kmh SE 0.4 mph0.6 kmh 30.01 in1016.3 mb 0.00 in0.0 mm 0.00 in/hr0.0 mm/hr 0.00 in0.0 mm
12:36 AM 55.8°F13.2°C 30.4°F-0.9°C 38% Calm Calm 0.4 mph0.6 kmh 30.01 in1016.3 mb 0.00 in0.0 mm 0.00 in/hr0.0 mm/hr 0.00 in0.0 mm
12:41 AM 55.3°F12.9°C 30.0°F-1.1°C 38% Calm Calm -- 30.01 in1016.3 mb 0.00 in0.0 mm 0.00 in/hr0.0 mm/hr 0.00 in0.0 mm
12:46 AM 54.7°F12.6°C 29.4°F-1.4°C 38% Calm Calm -- 30.01 in1016.3 mb 0.00 in0.0 mm 0.00 in/hr0.0 mm/hr 0.00 in0.0 mm
12:51 AM 54.2°F12.3°C 29.7°F-1.3°C 39% 0.4 mph ESE0.6 kmh ESE 0.4 mph0.6 kmh 30.01 in1016.3 mb 0.00 in0.0 mm 0.00 in/hr0.0 mm/hr 0.00 in0.0 mm
12:56 AM 53.8°F12.1°C 30.6°F-0.8°C 41% 4.7 mph E7.6 kmh E 4.7 mph7.6 kmh 30.01 in1016.3 mb 0.00 in0.0 mm 0.00 in/hr0.0 mm/hr 0.00 in0.0 mm
01:02 AM 53.8°F12.1°C 31.1°F-0.5°C 42% 2.5 mph E4.0 kmh E 4.7 mph7.6 kmh 30.01 in1016.3 mb 0.00 in0.0 mm 0.00 in/hr0.0 mm/hr 0.00 in0.0 mm
01:07 AM 53.8°F12.1°C 32.3°F0.2°C 44% 2.0 mph E3.2 kmh E 4.0 mph6.4 kmh 30.01 in1016.3 mb 0.00 in0.0 mm 0.00 in/hr0.0 mm/hr 0.00 in0.0 mm
01:12 AM 53.8°F12.1°C 31.7°F-0.2°C 43% Calm Calm 2.9 mph4.7 kmh 30.01 in1016.3 mb 0.00 in0.0 mm 0.00 in/hr0.0 mm/hr 0.00 in0.0 mm
01:17 AM 53.6°F12.0°C 31.6°F-0.2°C 43% 1.4 mph ENE2.3 kmh ENE 1.6 mph2.6 kmh 30.01 in1016.3 mb 0.00 in0.0 mm 0.00 in/hr0.0 mm/hr 0.00 in0.0 mm
01:22 AM 53.5°F11.9°C 33.0°F0.6°C 46% 6.5 mph ENE10.5 kmh ENE 6.7 mph10.8 kmh 30.01 in1016.3 mb 0.00 in0.0 mm 0.00 in/hr0.0 mm/hr 0.00 in0.0 mm
01:27 AM 53.8°F12.1°C 33.9°F1.1°C 47% 5.9 mph E9.5 kmh E 7.2 mph11.6 kmh 30.01 in1016.3 mb 0.00 in0.0 mm 0.00 in/hr0.0 mm/hr 0.00 in0.0 mm
01:32 AM 54.4°F12.4°C 34.5°F1.4°C 47% 5.8 mph ENE9.3 kmh ENE 7.2 mph11.6 kmh 30.01 in1016.3 mb 0.00 in0.0 mm 0.00 in/hr0.0 mm/hr 0.00 in0.0 mm
01:37 AM 54.9°F12.7°C 34.4°F1.3°C 46% 2.4 mph ESE3.9 kmh ESE 6.9 mph11.1 kmh 30.01 in1016.3 mb 0.00 in0.0 mm 0.00 in/hr0.0 mm/hr 0.00 in0.0 mm
01:42 AM 54.9°F12.7°C 33.9°F1.1°C 45% Calm Calm 4.9 mph7.9 kmh 30.01 in1016.3 mb 0.00 in0.0 mm 0.00 in/hr0.0 mm/hr 0.00 in0.0 mm
01:48 AM 54.7°F12.6°C 33.1°F0.6°C 44% 0.9 mph 1.4 kmh 1.3 mph2.1 kmh 30.01 in1016.3 mb 0.00 in0.0 mm 0.00 in/hr0.0 mm/hr 0.00 in0.0 mm
01:53 AM 54.4°F12.4°C 32.2°F0.1°C 43% 0.7 mph N1.1 kmh N 1.3 mph2.1 kmh 30.01 in1016.3 mb 0.00 in0.0 mm 0.00 in/hr0.0 mm/hr 0.00 in0.0 mm
01:58 AM 54.0°F12.2°C 32.4°F0.2°C 44% 0.2 mph NNW0.3 kmh NNW 1.1 mph1.8 kmh 30.01 in1016.3 mb 0.00 in0.0 mm 0.00 in/hr0.0 mm/hr 0.00 in0.0 mm
02:03 AM 53.8°F12.1°C 32.3°F0.2°C 44% Calm Calm 0.4 mph0.6 kmh 30.01 in1016.3 mb 0.00 in0.0 mm 0.00 in/hr0.0 mm/hr 0.00 in0.0 mm
02:08 AM 53.3°F11.8°C 31.2°F-0.4°C 43% 1.1 mph NE1.8 kmh NE 1.8 mph2.9 kmh 30.02 in1016.6 mb 0.00 in0.0 mm 0.00 in/hr0.0 mm/hr 0.00 in0.0 mm
02:13 AM 52.7°F11.5°C 31.9°F-0.1°C 45% 1.5 mph E2.4 kmh E 2.5 mph4.0 kmh 30.02 in1016.6 mb 0.00 in0.0 mm 0.00 in/hr0.0 mm/hr 0.00 in0.0 mm
02:18 AM 52.6°F11.4°C 31.7°F-0.2°C 45% 2.7 mph NE4.3 kmh NE 3.6 mph5.8 kmh 30.01 in1016.3 mb 0.00 in0.0 mm 0.00 in/hr0.0 mm/hr 0.00 in0.0 mm
02:24 AM 52.6°F11.4°C 31.7°F-0.2°C 45% 2.3 mph N3.7 kmh N 3.6 mph5.8 kmh 30.02 in1016.6 mb 0.00 in0.0 mm 0.00 in/hr0.0 mm/hr 0.00 in0.0 mm
02:29 AM 52.2°F11.2°C 31.4°F-0.3°C 45% 4.1 mph NNE6.6 kmh NNE 4.7 mph7.6 kmh 30.02 in1016.6 mb 0.00 in0.0 mm 0.00 in/hr0.0 mm/hr 0.00 in0.0 mm
02:34 AM 52.0°F11.1°C 31.2°F-0.4°C 45% 2.6 mph 4.2 kmh 4.7 mph7.6 kmh 30.01 in1016.3 mb 0.00 in0.0 mm 0.00 in/hr0.0 mm/hr 0.00 in0.0 mm
02:39 AM 51.7°F10.9°C 30.9°F-0.6°C 45% 1.7 mph 2.7 kmh 5.4 mph8.7 kmh 30.01 in1016.3 mb 0.00 in0.0 mm 0.00 in/hr0.0 mm/hr 0.00 in0.0 mm
02:44 AM 51.3°F10.7°C 30.6°F-0.8°C 45% 0.8 mph NNE1.3 kmh NNE 5.4 mph8.7 kmh 30.01 in1016.3 mb 0.00 in0.0 mm 0.00 in/hr0.0 mm/hr 0.00 in0.0 mm
02:49 AM 50.9°F10.5°C 30.2°F-1.0°C 45% 2.1 mph WSW3.4 kmh WSW 3.6 mph5.8 kmh 30.01 in1016.3 mb 0.00 in0.0 mm 0.00 in/hr0.0 mm/hr 0.00 in0.0 mm
02:54 AM 50.2°F10.1°C 29.6°F-1.3°C 45% 2.8 mph 4.5 kmh 3.6 mph5.8 kmh 30.01 in1016.3 mb 0.00 in0.0 mm 0.00 in/hr0.0 mm/hr 0.00 in0.0 mm
03:00 AM 49.5°F9.7°C 29.4°F-1.4°C 46% 3.7 mph S6.0 kmh S 5.4 mph8.7 kmh 30.01 in1016.3 mb 0.00 in0.0 mm 0.00 in/hr0.0 mm/hr 0.00 in0.0 mm
03:05 AM 49.3°F9.6°C 29.4°F-1.4°C 46% 3.7 mph SE6.0 kmh SE 5.4 mph8.7 kmh 30.01 in1016.3 mb 0.00 in0.0 mm 0.00 in/hr0.0 mm/hr 0.00 in0.0 mm
03:10 AM 49.3°F9.6°C 30.4°F-0.9°C 48% 3.7 mph NE6.0 kmh NE 5.1 mph8.2 kmh 30.01 in1016.3 mb 0.00 in0.0 mm 0.00 in/hr0.0 mm/hr 0.00 in0.0 mm
03:15 AM 49.1°F9.5°C 30.3°F-0.9°C 48% 3.7 mph NE6.0 kmh NE 4.0 mph6.4 kmh 30.01 in1016.3 mb 0.00 in0.0 mm 0.00 in/hr0.0 mm/hr 0.00 in0.0 mm
03:20 AM 49.1°F9.5°C 30.8°F-0.7°C 49% 2.2 mph ENE3.5 kmh ENE 4.0 mph6.4 kmh 30.01 in1016.3 mb 0.00 in0.0 mm 0.00 in/hr0.0 mm/hr 0.00 in0.0 mm
03:25 AM 49.0°F9.4°C 30.1°F-1.1°C 48% 0.2 mph SSE0.3 kmh SSE 2.7 mph4.3 kmh 30.01 in1016.3 mb 0.00 in0.0 mm 0.00 in/hr0.0 mm/hr 0.00 in0.0 mm
03:30 AM 48.8°F9.3°C 29.9°F-1.2°C 48% 4.3 mph E6.9 kmh E 5.6 mph9.0 kmh 30.01 in1016.3 mb 0.00 in0.0 mm 0.00 in/hr0.0 mm/hr 0.00 in0.0 mm
03:35 AM 48.6°F9.2°C 30.8°F-0.7°C 50% 7.4 mph E11.9 kmh E 9.4 mph15.1 kmh 30.01 in1016.3 mb 0.00 in0.0 mm 0.00 in/hr0.0 mm/hr 0.00 in0.0 mm
03:40 AM 48.6°F9.2°C 31.7°F-0.2°C 52% 4.3 mph ENE6.9 kmh ENE 9.4 mph15.1 kmh 30.01 in1016.3 mb 0.00 in0.0 mm 0.00 in/hr0.0 mm/hr 0.00 in0.0 mm
03:45 AM 48.8°F9.3°C 31.4°F-0.3°C 51% 2.5 mph NE4.0 kmh NE 6.0 mph9.7 kmh 30.01 in1016.3 mb 0.00 in0.0 mm 0.00 in/hr0.0 mm/hr 0.00 in0.0 mm
03:50 AM 49.3°F9.6°C 32.4°F0.2°C 52% 4.3 mph NE6.9 kmh NE 5.1 mph8.2 kmh 30.01 in1016.3 mb 0.00 in0.0 mm 0.00 in/hr0.0 mm/hr 0.00 in0.0 mm
03:55 AM 49.5°F9.7°C 32.6°F0.3°C 52% 4.4 mph E7.1 kmh E 5.4 mph8.7 kmh 30.01 in1016.3 mb 0.00 in0.0 mm 0.00 in/hr0.0 mm/hr 0.00 in0.0 mm
04:01 AM 49.3°F9.6°C 32.9°F0.5°C 53% 5.0 mph ENE8.0 kmh ENE 5.4 mph8.7 kmh 30.01 in1016.3 mb 0.00 in0.0 mm 0.00 in/hr0.0 mm/hr 0.00 in0.0 mm
04:06 AM 49.3°F9.6°C 32.4°F0.2°C 52% 0.8 mph ENE1.3 kmh ENE 5.1 mph8.2 kmh 30.01 in1016.3 mb 0.00 in0.0 mm 0.00 in/hr0.0 mm/hr 0.00 in0.0 mm
04:11 AM 49.0°F9.4°C 32.0°F0.0°C 52% 0.9 mph NNW1.4 kmh NNW 3.4 mph5.5 kmh 30.01 in1016.3 mb 0.00 in0.0 mm 0.00 in/hr0.0 mm/hr 0.00 in0.0 mm
04:17 AM 48.8°F9.3°C 31.4°F-0.3°C 51% 0.4 mph E0.6 kmh E 3.4 mph5.5 kmh 30.01 in1016.3 mb 0.00 in0.0 mm 0.00 in/hr0.0 mm/hr 0.00 in0.0 mm
04:22 AM 48.4°F9.1°C 31.1°F-0.5°C 51% Calm Calm 0.7 mph1.1 kmh 30.01 in1016.3 mb 0.00 in0.0 mm 0.00 in/hr0.0 mm/hr 0.00 in0.0 mm
04:27 AM 48.2°F9.0°C 30.9°F-0.6°C 51% 0.7 mph NNW1.1 kmh NNW 1.1 mph1.8 kmh 30.01 in1016.3 mb 0.00 in0.0 mm 0.00 in/hr0.0 mm/hr 0.00 in0.0 mm
04:32 AM 48.1°F8.9°C 30.7°F-0.7°C 51% Calm Calm 1.1 mph1.8 kmh 30.01 in1016.3 mb 0.00 in0.0 mm 0.00 in/hr0.0 mm/hr 0.00 in0.0 mm
04:37 AM 47.9°F8.8°C 31.1°F-0.5°C 52% Calm Calm 0.2 mph0.3 kmh 30.01 in1016.3 mb 0.00 in0.0 mm 0.00 in/hr0.0 mm/hr 0.00 in0.0 mm
04:42 AM 47.7°F8.7°C 30.9°F-0.6°C 52% Calm Calm 0.4 mph0.6 kmh 30.01 in1016.3 mb 0.00 in0.0 mm 0.00 in/hr0.0 mm/hr 0.00 in0.0 mm
04:47 AM 47.5°F8.6°C 30.3°F-0.9°C 51% 0.3 mph 0.5 kmh 0.4 mph0.6 kmh 30.01 in1016.3 mb 0.00 in0.0 mm 0.00 in/hr0.0 mm/hr 0.00 in0.0 mm
04:52 AM 47.2°F8.4°C 29.9°F-1.2°C 51% 0.4 mph NNE0.6 kmh NNE 0.7 mph1.1 kmh 30.02 in1016.6 mb 0.00 in0.0 mm 0.00 in/hr0.0 mm/hr 0.00 in0.0 mm
04:57 AM 47.0°F8.3°C 30.3°F-0.9°C 52% 4.3 mph NNE6.9 kmh NNE 5.1 mph8.2 kmh 30.02 in1016.6 mb 0.00 in0.0 mm 0.00 in/hr0.0 mm/hr 0.00 in0.0 mm
05:03 AM 47.0°F8.3°C 31.2°F-0.4°C 54% 5.4 mph NNE8.7 kmh NNE 6.7 mph10.8 kmh 30.02 in1016.6 mb 0.00 in0.0 mm 0.00 in/hr0.0 mm/hr 0.00 in0.0 mm
05:08 AM 47.0°F8.3°C 30.7°F-0.7°C 53% 3.1 mph NE5.0 kmh NE 6.7 mph10.8 kmh 30.02 in1016.6 mb 0.00 in0.0 mm 0.00 in/hr0.0 mm/hr 0.00 in0.0 mm
05:13 AM 47.5°F8.6°C 32.0°F0.0°C 55% 4.7 mph NNE7.6 kmh NNE 5.6 mph9.0 kmh 30.02 in1016.6 mb 0.00 in0.0 mm 0.00 in/hr0.0 mm/hr 0.00 in0.0 mm
05:18 AM 47.9°F8.8°C 32.0°F0.0°C 54% 4.0 mph NE6.4 kmh NE 5.6 mph9.0 kmh 30.02 in1016.6 mb 0.00 in0.0 mm 0.00 in/hr0.0 mm/hr 0.00 in0.0 mm
05:23 AM 47.9°F8.8°C 31.5°F-0.3°C 53% 2.3 mph NE3.7 kmh NE 4.0 mph6.4 kmh 30.02 in1016.6 mb 0.00 in0.0 mm 0.00 in/hr0.0 mm/hr 0.00 in0.0 mm
05:28 AM 47.9°F8.8°C 32.0°F0.0°C 54% 1.6 mph ENE2.6 kmh ENE 4.0 mph6.4 kmh 30.02 in1016.6 mb 0.00 in0.0 mm 0.00 in/hr0.0 mm/hr 0.00 in0.0 mm
05:33 AM 47.9°F8.8°C 31.5°F-0.3°C 53% Calm Calm 2.5 mph4.0 kmh 30.02 in1016.6 mb 0.00 in0.0 mm 0.00 in/hr0.0 mm/hr 0.00 in0.0 mm
05:38 AM 47.5°F8.6°C 31.1°F-0.5°C 53% Calm Calm 1.1 mph1.8 kmh 30.02 in1016.6 mb 0.00 in0.0 mm 0.00 in/hr0.0 mm/hr 0.00 in0.0 mm
05:44 AM 47.0°F8.3°C 30.7°F-0.7°C 53% Calm Calm -- 30.02 in1016.6 mb 0.00 in0.0 mm 0.00 in/hr0.0 mm/hr 0.00 in0.0 mm
05:49 AM 46.6°F8.1°C 30.8°F-0.7°C 54% 1.6 mph E2.6 kmh E 1.6 mph2.6 kmh 30.02 in1016.6 mb 0.00 in0.0 mm 0.00 in/hr0.0 mm/hr 0.00 in0.0 mm
05:54 AM 46.3°F7.9°C 30.4°F-0.9°C 54% 2.6 mph ENE4.2 kmh ENE 2.9 mph4.7 kmh 30.02 in1016.6 mb 0.00 in0.0 mm 0.00 in/hr0.0 mm/hr 0.00 in0.0 mm
05:59 AM 45.9°F7.7°C 30.2°F-1.0°C 54% 2.5 mph 4.0 kmh 3.4 mph5.5 kmh 30.02 in1016.6 mb 0.00 in0.0 mm 0.00 in/hr0.0 mm/hr 0.00 in0.0 mm
06:04 AM 45.7°F7.6°C 30.4°F-0.9°C 55% 0.9 mph NNE1.4 kmh NNE 3.4 mph5.5 kmh 30.02 in1016.6 mb 0.00 in0.0 mm 0.00 in/hr0.0 mm/hr 0.00 in0.0 mm
06:09 AM 45.5°F7.5°C 30.7°F-0.7°C 56% 0.2 mph NNE0.3 kmh NNE 3.4 mph5.5 kmh 30.02 in1016.6 mb 0.00 in0.0 mm 0.00 in/hr0.0 mm/hr 0.00 in0.0 mm
06:15 AM 45.5°F7.5°C 30.7°F-0.7°C 56% Calm Calm 1.3 mph2.1 kmh 30.02 in1016.6 mb 0.00 in0.0 mm 0.00 in/hr0.0 mm/hr 0.00 in0.0 mm
06:20 AM 45.4°F7.4°C 30.5°F-0.8°C 56% 0.9 mph 1.4 kmh 0.9 mph1.4 kmh 30.02 in1016.6 mb 0.00 in0.0 mm 0.00 in/hr0.0 mm/hr 0.00 in0.0 mm
06:25 AM 45.4°F7.4°C 30.5°F-0.8°C 56% 0.3 mph 0.5 kmh 0.9 mph1.4 kmh 30.03 in1016.9 mb 0.00 in0.0 mm 0.00 in/hr0.0 mm/hr 0.00 in0.0 mm
06:30 AM 45.2°F7.3°C 30.3°F-0.9°C 56% 0.6 mph NNE1.0 kmh NNE 0.9 mph1.4 kmh 30.03 in1016.9 mb 0.00 in0.0 mm 0.00 in/hr0.0 mm/hr 0.00 in0.0 mm
06:35 AM 45.5°F7.5°C 31.1°F-0.5°C 57% 0.8 mph NNE1.3 kmh NNE 3.1 mph5.0 kmh 30.03 in1016.9 mb 0.00 in0.0 mm 0.00 in/hr0.0 mm/hr 0.00 in0.0 mm
06:39 AM 45.5°F7.5°C 31.1°F-0.5°C 57% 2.3 mph NNE3.7 kmh NNE 3.1 mph5.0 kmh 30.03 in1016.9 mb 0.00 in0.0 mm 0.00 in/hr0.0 mm/hr 0.00 in0.0 mm
06:44 AM 45.4°F7.4°C 31.0°F-0.6°C 57% 0.7 mph 1.1 kmh 2.9 mph4.7 kmh 30.03 in1016.9 mb 0.00 in0.0 mm 0.00 in/hr0.0 mm/hr 0.00 in0.0 mm
06:49 AM 45.5°F7.5°C 31.1°F-0.5°C 57% 1.9 mph N3.1 kmh N 2.5 mph4.0 kmh 30.03 in1016.9 mb 0.00 in0.0 mm 0.00 in/hr0.0 mm/hr 0.00 in0.0 mm
06:54 AM 45.9°F7.7°C 31.5°F-0.3°C 57% 0.2 mph 0.3 kmh 2.5 mph4.0 kmh 30.03 in1016.9 mb 0.00 in0.0 mm 0.00 in/hr0.0 mm/hr 0.00 in0.0 mm
07:00 AM 46.3°F7.9°C 31.8°F-0.1°C 57% 0.2 mph 0.3 kmh 1.6 mph2.6 kmh 30.03 in1016.9 mb 0.00 in0.0 mm 0.00 in/hr0.0 mm/hr 0.00 in0.0 mm
07:05 AM 46.8°F8.2°C 32.3°F0.2°C 57% Calm Calm 0.4 mph0.6 kmh 30.03 in1016.9 mb 0.00 in0.0 mm 0.00 in/hr0.0 mm/hr 0.00 in0.0 mm
07:10 AM 47.7°F8.7°C 34.1°F1.2°C 59% 3.0 mph E4.8 kmh E 3.6 mph5.8 kmh 30.04 in1017.3 mb 0.00 in0.0 mm 0.00 in/hr0.0 mm/hr 0.00 in0.0 mm
07:15 AM 48.6°F9.2°C 34.5°F1.4°C 58% 1.3 mph E2.1 kmh E 3.6 mph5.8 kmh 30.04 in1017.3 mb 0.00 in0.0 mm 0.00 in/hr0.0 mm/hr 0.00 in0.0 mm
07:20 AM 49.7°F9.8°C 34.6°F1.4°C 56% 0.8 mph ENE1.3 kmh ENE 2.7 mph4.3 kmh 30.04 in1017.3 mb 0.00 in0.0 mm 0.00 in/hr0.0 mm/hr 0.00 in0.0 mm
07:25 AM 50.8°F10.4°C 35.1°F1.7°C 55% 1.8 mph ENE2.9 kmh ENE 2.7 mph4.3 kmh 30.04 in1017.3 mb 0.00 in0.0 mm 0.00 in/hr0.0 mm/hr 0.00 in0.0 mm
07:30 AM 51.5°F10.8°C 34.8°F1.6°C 53% 2.2 mph E3.5 kmh E 3.1 mph5.0 kmh 30.04 in1017.3 mb 0.00 in0.0 mm 0.00 in/hr0.0 mm/hr 0.00 in0.0 mm
07:35 AM 52.2°F11.2°C 35.6°F2.0°C 53% 1.1 mph NE1.8 kmh NE 3.1 mph5.0 kmh 30.04 in1017.3 mb 0.00 in0.0 mm 0.00 in/hr0.0 mm/hr 0.00 in0.0 mm
07:40 AM 52.6°F11.4°C 35.4°F1.9°C 52% 1.4 mph E2.3 kmh E 2.5 mph4.0 kmh 30.04 in1017.3 mb 0.00 in0.0 mm 0.00 in/hr0.0 mm/hr 0.00 in0.0 mm
07:45 AM 52.9°F11.6°C 35.3°F1.8°C 51% 1.9 mph ENE3.1 kmh ENE 3.4 mph5.5 kmh 30.04 in1017.3 mb 0.00 in0.0 mm 0.00 in/hr0.0 mm/hr 0.00 in0.0 mm
07:50 AM 53.3°F11.8°C 35.1°F1.7°C 50% 4.5 mph E7.2 kmh E 5.4 mph8.7 kmh 30.04 in1017.3 mb 0.00 in0.0 mm 0.00 in/hr0.0 mm/hr 0.00 in0.0 mm
07:55 AM 53.6°F12.0°C 35.5°F1.9°C 50% 2.8 mph ENE4.5 kmh ENE 5.4 mph8.7 kmh 30.04 in1017.3 mb 0.00 in0.0 mm 0.00 in/hr0.0 mm/hr 0.00 in0.0 mm
08:00 AM 53.8°F12.1°C 35.1°F1.7°C 49% 3.7 mph E6.0 kmh E 4.7 mph7.6 kmh 30.04 in1017.3 mb 0.00 in0.0 mm 0.00 in/hr0.0 mm/hr 0.00 in0.0 mm
08:05 AM 54.0°F12.2°C 35.2°F1.8°C 49% 4.6 mph E7.4 kmh E 5.4 mph8.7 kmh 30.04 in1017.3 mb 0.00 in0.0 mm 0.00 in/hr0.0 mm/hr 0.00 in0.0 mm
08:10 AM 54.4°F12.4°C 35.6°F2.0°C 49% 3.5 mph E5.6 kmh E 5.4 mph8.7 kmh 30.04 in1017.3 mb 0.00 in0.0 mm 0.00 in/hr0.0 mm/hr 0.00 in0.0 mm
08:15 AM 55.1°F12.8°C 36.2°F2.3°C 49% 3.2 mph E5.1 kmh E 4.5 mph7.2 kmh 30.04 in1017.3 mb 0.00 in0.0 mm 0.00 in/hr0.0 mm/hr 0.00 in0.0 mm
08:20 AM 55.4°F13.0°C 36.0°F2.2°C 48% 1.8 mph E2.9 kmh E 4.0 mph6.4 kmh 30.04 in1017.3 mb 0.00 in0.0 mm 0.00 in/hr0.0 mm/hr 0.00 in0.0 mm
08:25 AM 55.6°F13.1°C 36.2°F2.3°C 48% 1.5 mph ENE2.4 kmh ENE 3.4 mph5.5 kmh 30.04 in1017.3 mb 0.00 in0.0 mm 0.00 in/hr0.0 mm/hr 0.00 in0.0 mm
08:30 AM 56.2°F13.4°C 36.6°F2.6°C 48% 0.7 mph E1.1 kmh E 2.7 mph4.3 kmh 30.04 in1017.3 mb 0.00 in0.0 mm 0.00 in/hr0.0 mm/hr 0.00 in0.0 mm
08:35 AM 56.7°F13.7°C 37.2°F2.9°C 48% 0.9 mph NNE1.4 kmh NNE 2.7 mph4.3 kmh 30.04 in1017.3 mb 0.00 in0.0 mm 0.00 in/hr0.0 mm/hr 0.00 in0.0 mm
08:40 AM 57.8°F14.3°C 37.6°F3.1°C 47% 0.7 mph E1.1 kmh E 1.6 mph2.6 kmh 30.04 in1017.3 mb 0.00 in0.0 mm 0.00 in/hr0.0 mm/hr 0.00 in0.0 mm
08:45 AM 58.9°F14.9°C 38.6°F3.7°C 47% 1.3 mph E2.1 kmh E 1.6 mph2.6 kmh 30.04 in1017.3 mb 0.00 in0.0 mm 0.00 in/hr0.0 mm/hr 0.00 in0.0 mm
08:50 AM 59.9°F15.5°C 39.0°F3.9°C 46% Calm Calm 1.6 mph2.6 kmh 30.04 in1017.3 mb 0.00 in0.0 mm 0.00 in/hr0.0 mm/hr 0.00 in0.0 mm
08:55 AM 60.8°F16.0°C 39.2°F4.0°C 45% 1.3 mph NNE2.1 kmh NNE 1.8 mph2.9 kmh 30.04 in1017.3 mb 0.00 in0.0 mm 0.00 in/hr0.0 mm/hr 0.00 in0.0 mm
09:00 AM 61.9°F16.6°C 39.1°F3.9°C 43% 0.6 mph N1.0 kmh N 2.0 mph3.2 kmh 30.04 in1017.3 mb 0.00 in0.0 mm 0.00 in/hr0.0 mm/hr 0.00 in0.0 mm
09:05 AM 62.8°F17.1°C 39.3°F4.1°C 42% 0.3 mph NE0.5 kmh NE 3.4 mph5.5 kmh 30.04 in1017.3 mb 0.00 in0.0 mm 0.00 in/hr0.0 mm/hr 0.00 in0.0 mm
09:10 AM 63.7°F17.6°C 40.2°F4.6°C 42% 3.3 mph E5.3 kmh E 4.7 mph7.6 kmh 30.04 in1017.3 mb 0.00 in0.0 mm 0.00 in/hr0.0 mm/hr 0.00 in0.0 mm
09:15 AM 65.0°F18.3°C 41.2°F5.1°C 42% 2.1 mph NE3.4 kmh NE 4.7 mph7.6 kmh 30.03 in1016.9 mb 0.00 in0.0 mm 0.00 in/hr0.0 mm/hr 0.00 in0.0 mm
09:20 AM 65.9°F18.8°C 40.9°F4.9°C 40% 2.9 mph SE4.7 kmh SE 4.7 mph7.6 kmh 30.04 in1017.3 mb 0.00 in0.0 mm 0.00 in/hr0.0 mm/hr 0.00 in0.0 mm
09:25 AM 66.4°F19.1°C 40.7°F4.8°C 39% 1.5 mph E2.4 kmh E 4.7 mph7.6 kmh 30.04 in1017.3 mb 0.00 in0.0 mm 0.00 in/hr0.0 mm/hr 0.00 in0.0 mm
09:30 AM 66.8°F19.3°C 41.0°F5.0°C 39% 1.7 mph NNE2.7 kmh NNE 4.3 mph6.9 kmh 30.04 in1017.3 mb 0.00 in0.0 mm 0.00 in/hr0.0 mm/hr 0.00 in0.0 mm
09:35 AM 67.3°F19.6°C 41.5°F5.3°C 39% 0.9 mph NE1.4 kmh NE 2.5 mph4.0 kmh 30.03 in1016.9 mb 0.00 in0.0 mm 0.00 in/hr0.0 mm/hr 0.00 in0.0 mm
09:40 AM 68.0°F20.0°C 42.1°F5.6°C 39% 2.7 mph 4.3 kmh 2.7 mph4.3 kmh 30.04 in1017.3 mb 0.00 in0.0 mm 0.00 in/hr0.0 mm/hr 0.00 in0.0 mm
09:45 AM 68.6°F20.3°C 41.9°F5.5°C 38% Calm Calm 2.7 mph4.3 kmh 30.04 in1017.3 mb 0.00 in0.0 mm 0.00 in/hr0.0 mm/hr 0.00 in0.0 mm
09:50 AM 69.5°F20.8°C 43.4°F6.3°C 39% 1.0 mph SE1.6 kmh SE 2.7 mph4.3 kmh 30.04 in1017.3 mb 0.00 in0.0 mm 0.00 in/hr0.0 mm/hr 0.00 in0.0 mm
09:55 AM 70.4°F21.3°C 42.8°F6.0°C 37% 0.4 mph NE0.6 kmh NE 1.6 mph2.6 kmh 30.04 in1017.3 mb 0.00 in0.0 mm 0.00 in/hr0.0 mm/hr 0.00 in0.0 mm
10:01 AM 71.5°F21.9°C 42.9°F6.1°C 36% 2.9 mph WSW4.7 kmh WSW 3.4 mph5.5 kmh 30.04 in1017.3 mb 0.00 in0.0 mm 0.00 in/hr0.0 mm/hr 0.00 in0.0 mm
10:06 AM 72.0°F22.2°C 43.5°F6.4°C 36% 0.2 mph S0.3 kmh S 3.4 mph5.5 kmh 30.03 in1016.9 mb 0.00 in0.0 mm 0.00 in/hr0.0 mm/hr 0.00 in0.0 mm
10:11 AM 72.9°F22.7°C 43.5°F6.4°C 35% 0.6 mph 1.0 kmh 2.5 mph4.0 kmh 30.03 in1016.9 mb 0.00 in0.0 mm 0.00 in/hr0.0 mm/hr 0.00 in0.0 mm
10:16 AM 73.3°F22.9°C 42.3°F5.7°C 33% 0.4 mph NE0.6 kmh NE 1.8 mph2.9 kmh 30.03 in1016.9 mb 0.00 in0.0 mm 0.00 in/hr0.0 mm/hr 0.00 in0.0 mm
10:21 AM 74.0°F23.3°C 42.9°F6.1°C 33% 0.4 mph 0.6 kmh 1.8 mph2.9 kmh 30.03 in1016.9 mb 0.00 in0.0 mm 0.00 in/hr0.0 mm/hr 0.00 in0.0 mm
10:25 AM 74.5°F23.6°C 43.4°F6.3°C 33% 1.5 mph N2.4 kmh N 2.5 mph4.0 kmh 30.03 in1016.9 mb 0.00 in0.0 mm 0.00 in/hr0.0 mm/hr 0.00 in0.0 mm
10:30 AM 75.2°F24.0°C 43.3°F6.3°C 32% 3.2 mph NNW5.1 kmh NNW 3.8 mph6.1 kmh 30.03 in1016.9 mb 0.00 in0.0 mm 0.00 in/hr0.0 mm/hr 0.00 in0.0 mm
10:35 AM 76.0°F24.4°C 43.9°F6.6°C 32% 1.0 mph 1.6 kmh 3.8 mph6.1 kmh 30.03 in1016.9 mb 0.00 in0.0 mm 0.00 in/hr0.0 mm/hr 0.00 in0.0 mm
10:40 AM 77.0°F25.0°C 45.6°F7.6°C 33% 1.0 mph SW1.6 kmh SW 2.2 mph3.5 kmh 30.03 in1016.9 mb 0.00 in0.0 mm 0.00 in/hr0.0 mm/hr 0.00 in0.0 mm
10:45 AM 78.1°F25.6°C 45.8°F7.7°C 32% 1.0 mph WNW1.6 kmh WNW 1.6 mph2.6 kmh 30.03 in1016.9 mb 0.00 in0.0 mm 0.00 in/hr0.0 mm/hr 0.00 in0.0 mm
10:50 AM 79.2°F26.2°C 46.7°F8.2°C 32% 1.5 mph W2.4 kmh W 2.5 mph4.0 kmh 30.02 in1016.6 mb 0.00 in0.0 mm 0.00 in/hr0.0 mm/hr 0.00 in0.0 mm
10:55 AM 80.1°F26.7°C 47.5°F8.6°C 32% 1.1 mph SSE1.8 kmh SSE 2.5 mph4.0 kmh 30.02 in1016.6 mb 0.00 in0.0 mm 0.00 in/hr0.0 mm/hr 0.00 in0.0 mm
11:01 AM 80.6°F27.0°C 46.4°F8.0°C 30% 2.2 mph WSW3.5 kmh WSW 2.9 mph4.7 kmh 30.02 in1016.6 mb 0.00 in0.0 mm 0.00 in/hr0.0 mm/hr 0.00 in0.0 mm
11:06 AM 81.4°F27.4°C 47.0°F8.3°C 30% 1.9 mph SSW3.1 kmh SSW 2.9 mph4.7 kmh 30.02 in1016.6 mb 0.00 in0.0 mm 0.00 in/hr0.0 mm/hr 0.00 in0.0 mm
11:11 AM 81.7°F27.6°C 46.3°F7.9°C 29% 1.0 mph W1.6 kmh W 3.4 mph5.5 kmh 30.02 in1016.6 mb 0.00 in0.0 mm 0.00 in/hr0.0 mm/hr 0.00 in0.0 mm
11:16 AM 82.6°F28.1°C 48.1°F8.9°C 30% 1.3 mph SE2.1 kmh SE 3.4 mph5.5 kmh 30.01 in1016.3 mb 0.00 in0.0 mm 0.00 in/hr0.0 mm/hr 0.00 in0.0 mm
11:21 AM 83.7°F28.7°C 49.1°F9.5°C 30% 1.7 mph SSE2.7 kmh SSE 2.5 mph4.0 kmh 30.01 in1016.3 mb 0.00 in0.0 mm 0.00 in/hr0.0 mm/hr 0.00 in0.0 mm
11:26 AM 85.0°F29.4°C 50.1°F10.1°C 30% 1.5 mph SSW2.4 kmh SSW 2.5 mph4.0 kmh 30.01 in1016.3 mb 0.00 in0.0 mm 0.00 in/hr0.0 mm/hr 0.00 in0.0 mm
11:31 AM 85.9°F29.9°C 49.9°F9.9°C 29% 2.7 mph SW4.3 kmh SW 4.0 mph6.4 kmh 30.01 in1016.3 mb 0.00 in0.0 mm 0.00 in/hr0.0 mm/hr 0.00 in0.0 mm
11:36 AM 86.2°F30.1°C 48.1°F8.9°C 27% 2.0 mph NE3.2 kmh NE 4.0 mph6.4 kmh 30.01 in1016.3 mb 0.00 in0.0 mm 0.00 in/hr0.0 mm/hr 0.00 in0.0 mm
11:41 AM 86.4°F30.2°C 47.1°F8.4°C 26% 5.4 mph SW8.7 kmh SW 6.9 mph11.1 kmh 30.00 in1015.9 mb 0.00 in0.0 mm 0.00 in/hr0.0 mm/hr 0.00 in0.0 mm
11:46 AM 86.2°F30.1°C 45.9°F7.7°C 25% 2.7 mph NW4.3 kmh NW 6.9 mph11.1 kmh 30.00 in1015.9 mb 0.00 in0.0 mm 0.00 in/hr0.0 mm/hr 0.00 in0.0 mm
11:51 AM 86.6°F30.3°C 47.3°F8.5°C 26% 3.4 mph W5.5 kmh W 5.8 mph9.3 kmh 30.00 in1015.9 mb 0.00 in0.0 mm 0.00 in/hr0.0 mm/hr 0.00 in0.0 mm
11:55 AM 86.9°F30.5°C 47.5°F8.6°C 26% 4.3 mph SW6.9 kmh SW 5.8 mph9.3 kmh 30.00 in1015.9 mb 0.00 in0.0 mm 0.00 in/hr0.0 mm/hr 0.00 in0.0 mm
12:01 PM 87.5°F30.8°C 47.0°F8.3°C 25% 1.2 mph WSW1.9 kmh WSW 5.8 mph9.3 kmh 30.00 in1015.9 mb 0.00 in0.0 mm 0.00 in/hr0.0 mm/hr 0.00 in0.0 mm
12:06 PM 88.0°F31.1°C 48.5°F9.2°C 26% 3.7 mph SW6.0 kmh SW 6.0 mph9.7 kmh 30.00 in1015.9 mb 0.00 in0.0 mm 0.00 in/hr0.0 mm/hr 0.00 in0.0 mm
12:11 PM 87.8°F31.0°C 46.2°F7.9°C 24% 4.5 mph WSW7.2 kmh WSW 7.8 mph12.6 kmh 29.99 in1015.6 mb 0.00 in0.0 mm 0.00 in/hr0.0 mm/hr 0.00 in0.0 mm
12:16 PM 87.8°F31.0°C 47.3°F8.5°C 25% 2.6 mph WSW4.2 kmh WSW 7.8 mph12.6 kmh 29.99 in1015.6 mb 0.00 in0.0 mm 0.00 in/hr0.0 mm/hr 0.00 in0.0 mm
12:21 PM 88.6°F31.4°C 47.9°F8.8°C 25% 3.5 mph SW5.6 kmh SW 6.0 mph9.7 kmh 29.99 in1015.6 mb 0.00 in0.0 mm 0.00 in/hr0.0 mm/hr 0.00 in0.0 mm
12:26 PM 89.3°F31.8°C 49.6°F9.8°C 26% 3.2 mph WSW5.1 kmh WSW 5.8 mph9.3 kmh 29.99 in1015.6 mb 0.00 in0.0 mm 0.00 in/hr0.0 mm/hr 0.00 in0.0 mm
12:31 PM 89.6°F32.0°C 48.8°F9.3°C 25% 7.4 mph SW11.9 kmh SW 9.8 mph15.8 kmh 29.98 in1015.2 mb 0.00 in0.0 mm 0.00 in/hr0.0 mm/hr 0.00 in0.0 mm
12:36 PM 89.5°F31.9°C 48.6°F9.2°C 25% 7.4 mph SW11.9 kmh SW 10.1 mph16.3 kmh 29.99 in1015.6 mb 0.00 in0.0 mm 0.00 in/hr0.0 mm/hr 0.00 in0.0 mm
12:41 PM 89.3°F31.8°C 47.4°F8.6°C 24% 11.1 mph SW17.9 kmh SW 13.0 mph20.9 kmh 29.98 in1015.2 mb 0.00 in0.0 mm 0.00 in/hr0.0 mm/hr 0.00 in0.0 mm
12:46 PM 88.4°F31.3°C 46.6°F8.1°C 24% 5.2 mph SW8.4 kmh SW 13.0 mph20.9 kmh 29.98 in1015.2 mb 0.00 in0.0 mm 0.00 in/hr0.0 mm/hr 0.00 in0.0 mm
12:51 PM 87.7°F30.9°C 45.0°F7.2°C 23% 12.2 mph WSW19.6 kmh WSW 12.8 mph20.6 kmh 29.98 in1015.2 mb 0.00 in0.0 mm 0.00 in/hr0.0 mm/hr 0.00 in0.0 mm
12:56 PM 87.5°F30.8°C 45.9°F7.7°C 24% 7.3 mph SW11.7 kmh SW 12.8 mph20.6 kmh 29.98 in1015.2 mb 0.00 in0.0 mm 0.00 in/hr0.0 mm/hr 0.00 in0.0 mm
01:01 PM 88.4°F31.3°C 46.6°F8.1°C 24% 10.4 mph WSW16.7 kmh WSW 12.8 mph20.6 kmh 29.97 in1014.9 mb 0.00 in0.0 mm 0.00 in/hr0.0 mm/hr 0.00 in0.0 mm
01:06 PM 88.0°F31.1°C 45.3°F7.4°C 23% 7.8 mph WNW12.6 kmh WNW 11.6 mph18.7 kmh 29.97 in1014.9 mb 0.00 in0.0 mm 0.00 in/hr0.0 mm/hr 0.00 in0.0 mm
01:11 PM 87.8°F31.0°C 46.2°F7.9°C 24% 2.3 mph SW3.7 kmh SW 11.6 mph18.7 kmh 29.97 in1014.9 mb 0.00 in0.0 mm 0.00 in/hr0.0 mm/hr 0.00 in0.0 mm
01:16 PM 88.2°F31.2°C 47.5°F8.6°C 25% 6.1 mph SSW9.8 kmh SSW 8.5 mph13.7 kmh 29.97 in1014.9 mb 0.00 in0.0 mm 0.00 in/hr0.0 mm/hr 0.00 in0.0 mm
01:21 PM 88.2°F31.2°C 46.5°F8.1°C 24% 8.2 mph SSW13.2 kmh SSW 11.0 mph17.7 kmh 29.96 in1014.6 mb 0.00 in0.0 mm 0.00 in/hr0.0 mm/hr 0.00 in0.0 mm
01:26 PM 88.0°F31.1°C 46.4°F8.0°C 24% 6.6 mph SW10.6 kmh SW 11.0 mph17.7 kmh 29.96 in1014.6 mb 0.00 in0.0 mm 0.00 in/hr0.0 mm/hr 0.00 in0.0 mm
01:31 PM 87.8°F31.0°C 47.3°F8.5°C 25% 3.7 mph SW6.0 kmh SW 6.7 mph10.8 kmh 29.96 in1014.6 mb 0.00 in0.0 mm 0.00 in/hr0.0 mm/hr 0.00 in0.0 mm
01:36 PM 88.2°F31.2°C 46.5°F8.1°C 24% 3.0 mph NNW4.8 kmh NNW 4.9 mph7.9 kmh 29.96 in1014.6 mb 0.00 in0.0 mm 0.00 in/hr0.0 mm/hr 0.00 in0.0 mm
01:41 PM 88.6°F31.4°C 45.7°F7.6°C 23% 1.5 mph SE2.4 kmh SE 4.0 mph6.4 kmh 29.96 in1014.6 mb 0.00 in0.0 mm 0.00 in/hr0.0 mm/hr 0.00 in0.0 mm
01:46 PM 88.7°F31.5°C 47.0°F8.3°C 24% 2.6 mph E4.2 kmh E 3.6 mph5.8 kmh 29.96 in1014.6 mb 0.00 in0.0 mm 0.00 in/hr0.0 mm/hr 0.00 in0.0 mm
01:51 PM 89.8°F32.1°C 47.9°F8.8°C 24% 7.3 mph WSW11.7 kmh WSW 9.8 mph15.8 kmh 29.95 in1014.2 mb 0.00 in0.0 mm 0.00 in/hr0.0 mm/hr 0.00 in0.0 mm
01:56 PM 90.7°F32.6°C 47.5°F8.6°C 23% 2.7 mph SSE4.3 kmh SSE 9.8 mph15.8 kmh 29.95 in1014.2 mb 0.00 in0.0 mm 0.00 in/hr0.0 mm/hr 0.00 in0.0 mm
02:02 PM 91.4°F33.0°C 48.2°F9.0°C 23% 10.6 mph SSW17.1 kmh SSW 12.8 mph20.6 kmh 29.95 in1014.2 mb 0.00 in0.0 mm 0.00 in/hr0.0 mm/hr 0.00 in0.0 mm
02:07 PM 91.6°F33.1°C 48.2°F9.0°C 23% 7.2 mph SSW11.6 kmh SSW 12.8 mph20.6 kmh 29.95 in1014.2 mb 0.00 in0.0 mm 0.00 in/hr0.0 mm/hr 0.00 in0.0 mm
02:12 PM 91.8°F33.2°C 48.4°F9.1°C 23% 6.2 mph WSW10.0 kmh WSW 9.8 mph15.8 kmh 29.95 in1014.2 mb 0.00 in0.0 mm 0.00 in/hr0.0 mm/hr 0.00 in0.0 mm
02:17 PM 90.7°F32.6°C 46.5°F8.1°C 22% 5.9 mph WSW9.5 kmh WSW 10.7 mph17.2 kmh 29.95 in1014.2 mb 0.00 in0.0 mm 0.00 in/hr0.0 mm/hr 0.00 in0.0 mm
02:21 PM 90.7°F32.6°C 46.5°F8.1°C 22% 1.3 mph SW2.1 kmh SW 10.7 mph17.2 kmh 29.95 in1014.2 mb 0.00 in0.0 mm 0.00 in/hr0.0 mm/hr 0.00 in0.0 mm
02:26 PM 91.4°F33.0°C 45.9°F7.7°C 21% 1.9 mph W3.1 kmh W 10.7 mph17.2 kmh 29.94 in1013.9 mb 0.00 in0.0 mm 0.00 in/hr0.0 mm/hr 0.00 in0.0 mm
02:31 PM 92.2°F33.4°C 48.7°F9.3°C 23% 6.9 mph SSW11.1 kmh SSW 8.5 mph13.7 kmh 29.94 in1013.9 mb 0.00 in0.0 mm 0.00 in/hr0.0 mm/hr 0.00 in0.0 mm
02:36 PM 92.0°F33.3°C 48.5°F9.2°C 23% 4.0 mph SW6.4 kmh SW 9.6 mph15.4 kmh 29.94 in1013.9 mb 0.00 in0.0 mm 0.00 in/hr0.0 mm/hr 0.00 in0.0 mm
02:41 PM 91.4°F33.0°C 47.0°F8.3°C 22% 7.7 mph SW12.4 kmh SW 9.6 mph15.4 kmh 29.94 in1013.9 mb 0.00 in0.0 mm 0.00 in/hr0.0 mm/hr 0.00 in0.0 mm
02:46 PM 91.1°F32.8°C 45.6°F7.6°C 21% 7.8 mph WSW12.6 kmh WSW 10.7 mph17.2 kmh 29.94 in1013.9 mb 0.00 in0.0 mm 0.00 in/hr0.0 mm/hr 0.00 in0.0 mm
02:51 PM 91.1°F32.8°C 45.6°F7.6°C 21% 3.3 mph NW5.3 kmh NW 10.7 mph17.2 kmh 29.93 in1013.5 mb 0.00 in0.0 mm 0.00 in/hr0.0 mm/hr 0.00 in0.0 mm
02:56 PM 91.4°F33.0°C 47.0°F8.3°C 22% 8.9 mph SW14.3 kmh SW 11.0 mph17.7 kmh 29.93 in1013.5 mb 0.00 in0.0 mm 0.00 in/hr0.0 mm/hr 0.00 in0.0 mm
03:02 PM 91.8°F33.2°C 45.1°F7.3°C 20% 2.5 mph NW4.0 kmh NW 11.0 mph17.7 kmh 29.93 in1013.5 mb 0.00 in0.0 mm 0.00 in/hr0.0 mm/hr 0.00 in0.0 mm
03:07 PM 92.2°F33.4°C 48.7°F9.3°C 23% 2.2 mph SSW3.5 kmh SSW 8.1 mph13.0 kmh 29.93 in1013.5 mb 0.00 in0.0 mm 0.00 in/hr0.0 mm/hr 0.00 in0.0 mm
03:12 PM 92.7°F33.7°C 49.2°F9.6°C 23% 3.6 mph S5.8 kmh S 5.4 mph8.7 kmh 29.92 in1013.2 mb 0.00 in0.0 mm 0.00 in/hr0.0 mm/hr 0.00 in0.0 mm
03:17 PM 92.3°F33.5°C 43.8°F6.6°C 19% 7.4 mph SW11.9 kmh SW 9.8 mph15.8 kmh 29.92 in1013.2 mb 0.00 in0.0 mm 0.00 in/hr0.0 mm/hr 0.00 in0.0 mm
03:22 PM 91.3°F32.9°C 42.9°F6.1°C 19% 6.3 mph SSW10.1 kmh SSW 9.8 mph15.8 kmh 29.91 in1012.9 mb 0.00 in0.0 mm 0.00 in/hr0.0 mm/hr 0.00 in0.0 mm
03:27 PM 91.4°F33.0°C 45.9°F7.7°C 21% 8.9 mph SE14.3 kmh SE 10.5 mph16.9 kmh 29.91 in1012.9 mb 0.00 in0.0 mm 0.00 in/hr0.0 mm/hr 0.00 in0.0 mm
03:32 PM 92.2°F33.4°C 46.5°F8.1°C 21% 15.3 mph SSE24.6 kmh SSE 17.4 mph28.0 kmh 29.91 in1012.9 mb 0.00 in0.0 mm 0.00 in/hr0.0 mm/hr 0.00 in0.0 mm
03:37 PM 91.8°F33.2°C 46.2°F7.9°C 21% 11.6 mph SSE18.7 kmh SSE 17.4 mph28.0 kmh 29.91 in1012.9 mb 0.00 in0.0 mm 0.00 in/hr0.0 mm/hr 0.00 in0.0 mm
03:42 PM 91.4°F33.0°C 45.9°F7.7°C 21% 7.1 mph SE11.4 kmh SE 13.0 mph20.9 kmh 29.91 in1012.9 mb 0.00 in0.0 mm 0.00 in/hr0.0 mm/hr 0.00 in0.0 mm
03:46 PM 91.8°F33.2°C 46.2°F7.9°C 21% 9.6 mph S15.4 kmh S 13.0 mph20.9 kmh 29.91 in1012.9 mb 0.00 in0.0 mm 0.00 in/hr0.0 mm/hr 0.00 in0.0 mm
03:51 PM 91.4°F33.0°C 45.9°F7.7°C 21% 8.9 mph SW14.3 kmh SW 12.5 mph20.1 kmh 29.91 in1012.9 mb 0.00 in0.0 mm 0.00 in/hr0.0 mm/hr 0.00 in0.0 mm
03:56 PM 91.4°F33.0°C 45.9°F7.7°C 21% 5.9 mph SSW9.5 kmh SSW 9.6 mph15.4 kmh 29.91 in1012.9 mb 0.00 in0.0 mm 0.00 in/hr0.0 mm/hr 0.00 in0.0 mm
04:02 PM 91.6°F33.1°C 46.1°F7.8°C 21% 6.7 mph SSW10.8 kmh SSW 6.9 mph11.1 kmh 29.90 in1012.5 mb 0.00 in0.0 mm 0.00 in/hr0.0 mm/hr 0.00 in0.0 mm
04:07 PM 91.3°F32.9°C 44.6°F7.0°C 20% 6.3 mph SW10.1 kmh SW 8.5 mph13.7 kmh 29.90 in1012.5 mb 0.00 in0.0 mm 0.00 in/hr0.0 mm/hr 0.00 in0.0 mm
04:12 PM 90.4°F32.4°C 43.9°F6.6°C 20% 4.2 mph SW6.8 kmh SW 8.5 mph13.7 kmh 29.90 in1012.5 mb 0.00 in0.0 mm 0.00 in/hr0.0 mm/hr 0.00 in0.0 mm
04:17 PM 90.2°F32.3°C 44.9°F7.2°C 21% 5.1 mph S8.2 kmh S 8.3 mph13.4 kmh 29.90 in1012.5 mb 0.00 in0.0 mm 0.00 in/hr0.0 mm/hr 0.00 in0.0 mm
04:22 PM 89.8°F32.1°C 44.7°F7.1°C 21% 2.9 mph SE4.7 kmh SE 11.2 mph18.0 kmh 29.90 in1012.5 mb 0.00 in0.0 mm 0.00 in/hr0.0 mm/hr 0.00 in0.0 mm
04:27 PM 90.2°F32.3°C 44.9°F7.2°C 21% 4.4 mph SW7.1 kmh SW 11.2 mph18.0 kmh 29.89 in1012.2 mb 0.00 in0.0 mm 0.00 in/hr0.0 mm/hr 0.00 in0.0 mm
04:32 PM 90.5°F32.5°C 45.2°F7.3°C 21% 3.3 mph SSW5.3 kmh SSW 8.5 mph13.7 kmh 29.89 in1012.2 mb 0.00 in0.0 mm 0.00 in/hr0.0 mm/hr 0.00 in0.0 mm
04:37 PM 90.4°F32.4°C 45.0°F7.2°C 21% 8.9 mph S14.3 kmh S 12.5 mph20.1 kmh 29.89 in1012.2 mb 0.00 in0.0 mm 0.00 in/hr0.0 mm/hr 0.00 in0.0 mm
04:42 PM 89.6°F32.0°C 44.5°F6.9°C 21% 5.2 mph S8.4 kmh S 12.5 mph20.1 kmh 29.89 in1012.2 mb 0.00 in0.0 mm 0.00 in/hr0.0 mm/hr 0.00 in0.0 mm
04:47 PM 89.1°F31.7°C 45.1°F7.3°C 22% 5.7 mph S9.2 kmh S 8.9 mph14.3 kmh 29.89 in1012.2 mb 0.00 in0.0 mm 0.00 in/hr0.0 mm/hr 0.00 in0.0 mm
04:52 PM 89.1°F31.7°C 46.2°F7.9°C 23% 10.1 mph SE16.3 kmh SE 11.6 mph18.7 kmh 29.89 in1012.2 mb 0.00 in0.0 mm 0.00 in/hr0.0 mm/hr 0.00 in0.0 mm
04:57 PM 88.6°F31.4°C 46.8°F8.2°C 24% 5.9 mph SSE9.5 kmh SSE 12.3 mph19.8 kmh 29.89 in1012.2 mb 0.00 in0.0 mm 0.00 in/hr0.0 mm/hr 0.00 in0.0 mm
05:02 PM 88.7°F31.5°C 48.0°F8.9°C 25% 3.0 mph SE4.8 kmh SE 12.3 mph19.8 kmh 29.89 in1012.2 mb 0.00 in0.0 mm 0.00 in/hr0.0 mm/hr 0.00 in0.0 mm
05:07 PM 89.1°F31.7°C 47.3°F8.5°C 24% 5.9 mph SW9.5 kmh SW 6.3 mph10.1 kmh 29.89 in1012.2 mb 0.00 in0.0 mm 0.00 in/hr0.0 mm/hr 0.00 in0.0 mm
05:12 PM 88.9°F31.6°C 46.0°F7.8°C 23% 3.2 mph SE5.1 kmh SE 7.4 mph11.9 kmh 29.89 in1012.2 mb 0.00 in0.0 mm 0.00 in/hr0.0 mm/hr 0.00 in0.0 mm
05:17 PM 88.7°F31.5°C 45.9°F7.7°C 23% 3.8 mph SW6.1 kmh SW 7.4 mph11.9 kmh 29.89 in1012.2 mb 0.00 in0.0 mm 0.00 in/hr0.0 mm/hr 0.00 in0.0 mm
05:22 PM 88.2°F31.2°C 45.5°F7.5°C 23% 4.0 mph SW6.4 kmh SW 6.3 mph10.1 kmh 29.89 in1012.2 mb 0.00 in0.0 mm 0.00 in/hr0.0 mm/hr 0.00 in0.0 mm
05:27 PM 87.7°F30.9°C 45.0°F7.2°C 23% 5.8 mph SW9.3 kmh SW 7.6 mph12.2 kmh 29.88 in1011.9 mb 0.00 in0.0 mm 0.00 in/hr0.0 mm/hr 0.00 in0.0 mm
05:32 PM 87.1°F30.6°C 44.5°F6.9°C 23% 4.0 mph SSW6.4 kmh SSW 7.6 mph12.2 kmh 29.89 in1012.2 mb 0.00 in0.0 mm 0.00 in/hr0.0 mm/hr 0.00 in0.0 mm
05:37 PM 86.8°F30.4°C 45.3°F7.4°C 24% 7.1 mph S11.4 kmh S 7.4 mph11.9 kmh 29.89 in1012.2 mb 0.00 in0.0 mm 0.00 in/hr0.0 mm/hr 0.00 in0.0 mm
05:42 PM 85.9°F29.9°C 44.5°F6.9°C 24% 21.6 mph S34.8 kmh S 24.4 mph39.3 kmh 29.89 in1012.2 mb 0.00 in0.0 mm 0.00 in/hr0.0 mm/hr 0.00 in0.0 mm
05:47 PM 83.9°F28.8°C 47.1°F8.4°C 28% 27.2 mph S43.8 kmh S 29.1 mph46.8 kmh 29.90 in1012.5 mb 0.00 in0.0 mm 0.00 in/hr0.0 mm/hr 0.00 in0.0 mm
05:52 PM 81.0°F27.2°C 48.2°F9.0°C 32% 26.5 mph S42.6 kmh S 32.9 mph52.9 kmh 29.91 in1012.9 mb 0.00 in0.0 mm 0.00 in/hr0.0 mm/hr 0.00 in0.0 mm
05:57 PM 78.8°F26.0°C 46.4°F8.0°C 32% 8.5 mph SSE13.7 kmh SSE 32.9 mph52.9 kmh 29.94 in1013.9 mb 0.01 in0.3 mm 0.12 in/hr3.0 mm/hr 0.01 in0.3 mm
06:02 PM 78.3°F25.7°C 46.7°F8.2°C 33% 2.8 mph SSW4.5 kmh SSW 28.2 mph45.4 kmh 29.92 in1013.2 mb 0.01 in0.3 mm 0.00 in/hr0.0 mm/hr 0.01 in0.3 mm
06:07 PM 78.1°F25.6°C 47.4°F8.6°C 34% 2.5 mph SE4.0 kmh SE 11.2 mph18.0 kmh 29.93 in1013.5 mb 0.01 in0.3 mm 0.00 in/hr0.0 mm/hr 0.01 in0.3 mm
06:12 PM 77.8°F25.4°C 49.3°F9.6°C 37% 22.5 mph S36.2 kmh S 23.9 mph38.5 kmh 29.94 in1013.9 mb 0.01 in0.3 mm 0.00 in/hr0.0 mm/hr 0.01 in0.3 mm
06:17 PM 76.7°F24.8°C 46.1°F7.8°C 34% 8.1 mph SW13.0 kmh SW 23.9 mph38.5 kmh 29.95 in1014.2 mb 0.01 in0.3 mm 0.00 in/hr0.0 mm/hr 0.01 in0.3 mm
06:22 PM 76.5°F24.7°C 45.9°F7.7°C 34% 7.4 mph SW11.9 kmh SW 23.0 mph37.0 kmh 29.93 in1013.5 mb 0.01 in0.3 mm 0.00 in/hr0.0 mm/hr 0.01 in0.3 mm
06:27 PM 76.9°F24.9°C 44.7°F7.1°C 32% 2.9 mph NW4.7 kmh NW 20.1 mph32.3 kmh 29.90 in1012.5 mb 0.01 in0.3 mm 0.00 in/hr0.0 mm/hr 0.01 in0.3 mm
06:32 PM 77.4°F25.2°C 45.2°F7.3°C 32% 6.8 mph NE10.9 kmh NE 7.6 mph12.2 kmh 29.90 in1012.5 mb 0.01 in0.3 mm 0.00 in/hr0.0 mm/hr 0.01 in0.3 mm
06:37 PM 77.8°F25.4°C 44.7°F7.1°C 31% 6.9 mph ENE11.1 kmh ENE 7.6 mph12.2 kmh 29.91 in1012.9 mb 0.01 in0.3 mm 0.00 in/hr0.0 mm/hr 0.01 in0.3 mm
06:42 PM 77.4°F25.2°C 45.2°F7.3°C 32% 3.5 mph NNE5.6 kmh NNE 6.9 mph11.1 kmh 29.90 in1012.5 mb 0.01 in0.3 mm 0.00 in/hr0.0 mm/hr 0.01 in0.3 mm
06:47 PM 76.9°F24.9°C 45.5°F7.5°C 33% 2.3 mph W3.7 kmh W 6.9 mph11.1 kmh 29.90 in1012.5 mb 0.01 in0.3 mm 0.00 in/hr0.0 mm/hr 0.01 in0.3 mm
06:52 PM 76.3°F24.6°C 45.0°F7.2°C 33% 3.0 mph WSW4.8 kmh WSW 4.7 mph7.6 kmh 29.91 in1012.9 mb 0.01 in0.3 mm 0.00 in/hr0.0 mm/hr 0.01 in0.3 mm
06:57 PM 76.0°F24.4°C 46.2°F7.9°C 35% 3.7 mph WSW6.0 kmh WSW 4.7 mph7.6 kmh 29.91 in1012.9 mb 0.00 in0.0 mm 0.00 in/hr0.0 mm/hr 0.01 in0.3 mm
07:03 PM 75.2°F24.0°C 45.5°F7.5°C 35% 2.6 mph WSW4.2 kmh WSW 4.7 mph7.6 kmh 29.91 in1012.9 mb 0.00 in0.0 mm 0.00 in/hr0.0 mm/hr 0.01 in0.3 mm
07:08 PM 74.9°F23.8°C 46.7°F8.2°C 37% 4.5 mph 7.2 kmh 4.7 mph7.6 kmh 29.90 in1012.5 mb 0.00 in0.0 mm 0.00 in/hr0.0 mm/hr 0.01 in0.3 mm
07:13 PM 74.3°F23.5°C 47.0°F8.3°C 38% 1.2 mph E1.9 kmh E 4.7 mph7.6 kmh 29.90 in1012.5 mb 0.00 in0.0 mm 0.00 in/hr0.0 mm/hr 0.01 in0.3 mm
07:18 PM 74.0°F23.3°C 47.4°F8.6°C 39% 2.5 mph ESE4.0 kmh ESE 6.0 mph9.7 kmh 29.90 in1012.5 mb 0.00 in0.0 mm 0.00 in/hr0.0 mm/hr 0.01 in0.3 mm
07:23 PM 73.4°F23.0°C 47.7°F8.7°C 40% 1.3 mph WSW2.1 kmh WSW 6.0 mph9.7 kmh 29.91 in1012.9 mb 0.00 in0.0 mm 0.00 in/hr0.0 mm/hr 0.01 in0.3 mm
07:28 PM 73.1°F22.8°C 47.3°F8.5°C 40% 3.0 mph SW4.8 kmh SW 3.4 mph5.5 kmh 29.91 in1012.9 mb 0.00 in0.0 mm 0.00 in/hr0.0 mm/hr 0.01 in0.3 mm
07:33 PM 72.7°F22.6°C 47.1°F8.4°C 40% 2.8 mph SW4.5 kmh SW 4.5 mph7.2 kmh 29.91 in1012.9 mb 0.00 in0.0 mm 0.00 in/hr0.0 mm/hr 0.01 in0.3 mm
07:38 PM 72.5°F22.5°C 46.9°F8.3°C 40% 2.7 mph SW4.3 kmh SW 4.5 mph7.2 kmh 29.92 in1013.2 mb 0.00 in0.0 mm 0.00 in/hr0.0 mm/hr 0.01 in0.3 mm
07:43 PM 72.4°F22.4°C 46.7°F8.2°C 40% 4.3 mph SW6.9 kmh SW 5.1 mph8.2 kmh 29.93 in1013.5 mb 0.00 in0.0 mm 0.00 in/hr0.0 mm/hr 0.01 in0.3 mm
07:48 PM 72.4°F22.4°C 46.7°F8.2°C 40% 6.0 mph S9.7 kmh S 7.2 mph11.6 kmh 29.93 in1013.5 mb 0.00 in0.0 mm 0.00 in/hr0.0 mm/hr 0.01 in0.3 mm
07:53 PM 72.9°F22.7°C 45.0°F7.2°C 37% 19.3 mph S31.1 kmh S 22.4 mph36.0 kmh 29.93 in1013.5 mb 0.00 in0.0 mm 0.00 in/hr0.0 mm/hr 0.01 in0.3 mm
07:58 PM 74.3°F23.5°C 44.0°F6.7°C 34% 11.8 mph S19.0 kmh S 22.4 mph36.0 kmh 29.92 in1013.2 mb 0.00 in0.0 mm 0.00 in/hr0.0 mm/hr 0.01 in0.3 mm
08:03 PM 75.2°F24.0°C 44.8°F7.1°C 34% 7.9 mph SSW12.7 kmh SSW 22.4 mph36.0 kmh 29.92 in1013.2 mb 0.00 in0.0 mm 0.00 in/hr0.0 mm/hr 0.01 in0.3 mm
08:08 PM 75.4°F24.1°C 44.2°F6.8°C 33% 5.3 mph S8.5 kmh S 11.9 mph19.2 kmh 29.92 in1013.2 mb 0.00 in0.0 mm 0.00 in/hr0.0 mm/hr 0.01 in0.3 mm
08:13 PM 75.2°F24.0°C 44.0°F6.7°C 33% 2.6 mph SW4.2 kmh SW 6.7 mph10.8 kmh 29.91 in1012.9 mb 0.00 in0.0 mm 0.00 in/hr0.0 mm/hr 0.01 in0.3 mm
08:18 PM 75.2°F24.0°C 44.0°F6.7°C 33% 7.9 mph WSW12.7 kmh WSW 13.6 mph21.9 kmh 29.92 in1013.2 mb 0.00 in0.0 mm 0.00 in/hr0.0 mm/hr 0.01 in0.3 mm
08:23 PM 75.2°F24.0°C 44.0°F6.7°C 33% 3.0 mph SW4.8 kmh SW 13.6 mph21.9 kmh 29.92 in1013.2 mb 0.00 in0.0 mm 0.00 in/hr0.0 mm/hr 0.01 in0.3 mm
08:28 PM 75.1°F23.9°C 43.8°F6.6°C 33% 0.3 mph NW0.5 kmh NW 6.3 mph10.1 kmh 29.91 in1012.9 mb 0.00 in0.0 mm 0.00 in/hr0.0 mm/hr 0.01 in0.3 mm
08:33 PM 74.7°F23.7°C 43.6°F6.4°C 33% 1.1 mph SSE1.8 kmh SSE 2.0 mph3.2 kmh 29.91 in1012.9 mb 0.00 in0.0 mm 0.00 in/hr0.0 mm/hr 0.01 in0.3 mm
08:38 PM 74.3°F23.5°C 43.2°F6.2°C 33% 1.8 mph SE2.9 kmh SE 2.0 mph3.2 kmh 29.91 in1012.9 mb 0.00 in0.0 mm 0.00 in/hr0.0 mm/hr 0.01 in0.3 mm
08:43 PM 73.8°F23.2°C 44.3°F6.8°C 35% 2.6 mph E4.2 kmh E 3.4 mph5.5 kmh 29.91 in1012.9 mb 0.00 in0.0 mm 0.00 in/hr0.0 mm/hr 0.01 in0.3 mm
08:48 PM 73.3°F22.9°C 45.3°F7.4°C 37% 3.3 mph E5.3 kmh E 4.3 mph6.9 kmh 29.91 in1012.9 mb 0.00 in0.0 mm 0.00 in/hr0.0 mm/hr 0.01 in0.3 mm
08:53 PM 72.7°F22.6°C 44.8°F7.1°C 37% 4.3 mph ENE6.9 kmh ENE 4.7 mph7.6 kmh 29.91 in1012.9 mb 0.00 in0.0 mm 0.00 in/hr0.0 mm/hr 0.01 in0.3 mm
08:58 PM 72.4°F22.4°C 45.3°F7.4°C 38% 3.7 mph E6.0 kmh E 4.7 mph7.6 kmh 29.91 in1012.9 mb 0.00 in0.0 mm 0.00 in/hr0.0 mm/hr 0.01 in0.3 mm
09:03 PM 72.0°F22.2°C 44.9°F7.2°C 38% 2.9 mph E4.7 kmh E 4.0 mph6.4 kmh 29.90 in1012.5 mb 0.00 in0.0 mm 0.00 in/hr0.0 mm/hr 0.01 in0.3 mm
09:08 PM 71.6°F22.0°C 44.7°F7.1°C 38% 4.3 mph ENE6.9 kmh ENE 4.7 mph7.6 kmh 29.90 in1012.5 mb 0.00 in0.0 mm 0.00 in/hr0.0 mm/hr 0.01 in0.3 mm
09:13 PM 71.1°F21.7°C 44.8°F7.1°C 39% 5.3 mph E8.5 kmh E 5.6 mph9.0 kmh 29.91 in1012.9 mb 0.00 in0.0 mm 0.00 in/hr0.0 mm/hr 0.01 in0.3 mm
09:18 PM 70.7°F21.5°C 44.6°F7.0°C 39% 5.3 mph E8.5 kmh E 6.5 mph10.5 kmh 29.91 in1012.9 mb 0.00 in0.0 mm 0.00 in/hr0.0 mm/hr 0.01 in0.3 mm
09:23 PM 70.6°F21.4°C 44.4°F6.9°C 39% 5.7 mph SE9.2 kmh SE 7.6 mph12.2 kmh 29.90 in1012.5 mb 0.00 in0.0 mm 0.00 in/hr0.0 mm/hr 0.01 in0.3 mm
09:28 PM 70.4°F21.3°C 44.2°F6.8°C 39% 4.8 mph E7.7 kmh E 7.6 mph12.2 kmh 29.91 in1012.9 mb 0.00 in0.0 mm 0.00 in/hr0.0 mm/hr 0.01 in0.3 mm
09:33 PM 70.2°F21.2°C 44.0°F6.7°C 39% 5.5 mph E8.9 kmh E 5.6 mph9.0 kmh 29.91 in1012.9 mb 0.00 in0.0 mm 0.00 in/hr0.0 mm/hr 0.01 in0.3 mm
09:38 PM 69.8°F21.0°C 43.8°F6.6°C 39% 4.9 mph ESE7.9 kmh ESE 5.6 mph9.0 kmh 29.90 in1012.5 mb 0.00 in0.0 mm 0.00 in/hr0.0 mm/hr 0.01 in0.3 mm
09:43 PM 69.7°F20.9°C 43.6°F6.4°C 39% 4.9 mph E7.9 kmh E 5.6 mph9.0 kmh 29.90 in1012.5 mb 0.00 in0.0 mm 0.00 in/hr0.0 mm/hr 0.01 in0.3 mm
09:48 PM 69.3°F20.7°C 44.0°F6.7°C 40% 4.5 mph ESE7.2 kmh ESE 5.6 mph9.0 kmh 29.91 in1012.9 mb 0.00 in0.0 mm 0.00 in/hr0.0 mm/hr 0.01 in0.3 mm
09:53 PM 68.9°F20.5°C 43.7°F6.5°C 40% 2.5 mph S4.0 kmh S 5.6 mph9.0 kmh 29.91 in1012.9 mb 0.00 in0.0 mm 0.00 in/hr0.0 mm/hr 0.01 in0.3 mm
09:58 PM 68.8°F20.4°C 44.1°F6.7°C 41% 0.8 mph S1.3 kmh S 3.4 mph5.5 kmh 29.91 in1012.9 mb 0.00 in0.0 mm 0.00 in/hr0.0 mm/hr 0.01 in0.3 mm
10:04 PM 68.8°F20.4°C 44.1°F6.7°C 41% 0.7 mph SE1.1 kmh SE 3.1 mph5.0 kmh 29.91 in1012.9 mb 0.00 in0.0 mm 0.00 in/hr0.0 mm/hr 0.01 in0.3 mm
10:09 PM 68.8°F20.4°C 43.5°F6.4°C 40% 0.9 mph NNW1.4 kmh NNW 2.2 mph3.5 kmh 29.92 in1013.2 mb 0.00 in0.0 mm 0.00 in/hr0.0 mm/hr 0.01 in0.3 mm
10:14 PM 68.6°F20.3°C 43.3°F6.3°C 40% 1.1 mph N1.8 kmh N 1.1 mph1.8 kmh 29.92 in1013.2 mb 0.00 in0.0 mm 0.00 in/hr0.0 mm/hr 0.01 in0.3 mm
10:19 PM 68.6°F20.3°C 43.3°F6.3°C 40% 1.0 mph NE1.6 kmh NE 1.1 mph1.8 kmh 29.91 in1012.9 mb 0.00 in0.0 mm 0.00 in/hr0.0 mm/hr 0.01 in0.3 mm
10:24 PM 68.8°F20.4°C 43.5°F6.4°C 40% 0.7 mph 1.1 kmh 1.1 mph1.8 kmh 29.91 in1012.9 mb 0.00 in0.0 mm 0.00 in/hr0.0 mm/hr 0.01 in0.3 mm
10:29 PM 68.9°F20.5°C 42.9°F6.1°C 39% 0.8 mph 1.3 kmh 1.3 mph2.1 kmh 29.91 in1012.9 mb 0.00 in0.0 mm 0.00 in/hr0.0 mm/hr 0.01 in0.3 mm
10:34 PM 68.9°F20.5°C 42.9°F6.1°C 39% 0.4 mph NE0.6 kmh NE 1.3 mph2.1 kmh 29.91 in1012.9 mb 0.00 in0.0 mm 0.00 in/hr0.0 mm/hr 0.01 in0.3 mm
10:39 PM 68.8°F20.4°C 42.8°F6.0°C 39% Calm Calm 0.9 mph1.4 kmh 29.91 in1012.9 mb 0.00 in0.0 mm 0.00 in/hr0.0 mm/hr 0.01 in0.3 mm
10:44 PM 68.2°F20.1°C 43.0°F6.1°C 40% 1.5 mph 2.4 kmh 2.0 mph3.2 kmh 29.91 in1012.9 mb 0.00 in0.0 mm 0.00 in/hr0.0 mm/hr 0.01 in0.3 mm
10:49 PM 67.7°F19.8°C 41.8°F5.4°C 39% Calm Calm 2.0 mph3.2 kmh 29.91 in1012.9 mb 0.00 in0.0 mm 0.00 in/hr0.0 mm/hr 0.01 in0.3 mm
10:54 PM 67.3°F19.6°C 41.5°F5.3°C 39% 1.9 mph N3.1 kmh N 2.0 mph3.2 kmh 29.91 in1012.9 mb 0.00 in0.0 mm 0.00 in/hr0.0 mm/hr 0.01 in0.3 mm
10:58 PM 66.8°F19.3°C 41.7°F5.4°C 40% 0.6 mph NE1.0 kmh NE 2.0 mph3.2 kmh 29.91 in1012.9 mb 0.00 in0.0 mm 0.00 in/hr0.0 mm/hr 0.01 in0.3 mm
11:04 PM 66.1°F18.9°C 41.7°F5.4°C 41% 1.3 mph N2.1 kmh N 2.0 mph3.2 kmh 29.91 in1012.9 mb 0.00 in0.0 mm 0.00 in/hr0.0 mm/hr 0.01 in0.3 mm
11:09 PM 65.7°F18.7°C 42.0°F5.6°C 42% 2.2 mph E3.5 kmh E 2.7 mph4.3 kmh 29.91 in1012.9 mb 0.00 in0.0 mm 0.00 in/hr0.0 mm/hr 0.01 in0.3 mm
11:14 PM 65.3°F18.5°C 41.6°F5.3°C 42% 0.4 mph 0.6 kmh 2.7 mph4.3 kmh 29.91 in1012.9 mb 0.00 in0.0 mm 0.00 in/hr0.0 mm/hr 0.01 in0.3 mm
11:19 PM 65.0°F18.3°C 41.9°F5.5°C 43% 1.7 mph N2.7 kmh N 2.5 mph4.0 kmh 29.92 in1013.2 mb 0.00 in0.0 mm 0.00 in/hr0.0 mm/hr 0.01 in0.3 mm
11:24 PM 64.1°F17.8°C 41.6°F5.3°C 44% Calm Calm 2.9 mph4.7 kmh 29.92 in1013.2 mb 0.00 in0.0 mm 0.00 in/hr0.0 mm/hr 0.01 in0.3 mm
11:29 PM 63.5°F17.5°C 41.1°F5.1°C 44% 2.7 mph NNE4.3 kmh NNE 2.9 mph4.7 kmh 29.91 in1012.9 mb 0.00 in0.0 mm 0.00 in/hr0.0 mm/hr 0.01 in0.3 mm
11:34 PM 63.5°F17.5°C 41.7°F5.4°C 45% 4.6 mph NE7.4 kmh NE 6.5 mph10.5 kmh 29.91 in1012.9 mb 0.00 in0.0 mm 0.00 in/hr0.0 mm/hr 0.01 in0.3 mm
11:39 PM 63.5°F17.5°C 42.2°F5.7°C 46% 7.4 mph NE11.9 kmh NE 7.6 mph12.2 kmh 29.92 in1013.2 mb 0.00 in0.0 mm 0.00 in/hr0.0 mm/hr 0.01 in0.3 mm
11:44 PM 63.2°F17.3°C 42.0°F5.6°C 46% 6.8 mph NE10.9 kmh NE 8.7 mph14.0 kmh 29.91 in1012.9 mb 0.00 in0.0 mm 0.00 in/hr0.0 mm/hr 0.01 in0.3 mm
11:49 PM 63.4°F17.4°C 42.7°F5.9°C 47% 5.2 mph NE8.4 kmh NE 8.7 mph14.0 kmh 29.91 in1012.9 mb 0.00 in0.0 mm 0.00 in/hr0.0 mm/hr 0.01 in0.3 mm
11:54 PM 63.7°F17.6°C 42.4°F5.8°C 46% 4.4 mph NNE7.1 kmh NNE 8.1 mph13.0 kmh 29.91 in1012.9 mb 0.00 in0.0 mm 0.00 in/hr0.0 mm/hr 0.01 in0.3 mm
11:59 PM 63.5°F17.5°C 42.2°F5.7°C 46% 6.3 mph NE10.1 kmh NE 9.6 mph15.4 kmh 29.91 in1012.9 mb 0.00 in0.0 mm 0.00 in/hr0.0 mm/hr 0.01 in0.3 mm